createdAt,value
2022-10-12T00:01:04.116Z,83.90
2022-10-12T00:03:31.556Z,84.00
2022-10-12T00:06:02.363Z,84.10
2022-10-12T00:08:29.796Z,84.40
2022-10-12T00:10:57.229Z,84.60
2022-10-12T00:13:24.654Z,84.60
2022-10-12T00:15:52.048Z,84.60
2022-10-12T00:18:19.847Z,84.70
2022-10-12T00:20:47.306Z,84.80
2022-10-12T00:23:14.697Z,84.90
2022-10-12T00:25:42.163Z,85.00
2022-10-12T00:28:09.764Z,85.10
2022-10-12T00:30:39.713Z,85.20
2022-10-12T00:33:07.186Z,85.20
2022-10-12T00:35:34.641Z,85.30
2022-10-12T00:38:02.014Z,85.30
2022-10-12T00:40:29.463Z,85.30
2022-10-12T00:42:56.812Z,85.20
2022-10-12T00:45:24.883Z,85.30
2022-10-12T00:48:01.330Z,85.30
2022-10-12T00:50:34.196Z,85.30
2022-10-12T00:53:07.940Z,85.40
2022-10-12T00:55:38.523Z,85.40
2022-10-12T00:58:08.244Z,85.40
2022-10-12T01:00:37.588Z,85.40
2022-10-12T01:03:07.296Z,85.40
2022-10-12T01:05:34.917Z,85.40
2022-10-12T01:08:02.940Z,85.40
2022-10-12T01:10:30.335Z,85.30
2022-10-12T01:12:57.981Z,85.30
2022-10-12T01:15:28.017Z,85.20
2022-10-12T01:18:00.702Z,85.20
2022-10-12T01:20:28.135Z,85.30
2022-10-12T01:23:15.995Z,85.40
2022-10-12T01:25:49.436Z,85.40
2022-10-12T01:28:42.093Z,85.40
2022-10-12T01:31:26.543Z,85.40
2022-10-12T01:34:15.201Z,85.40
2022-10-12T01:36:47.276Z,85.50
2022-10-12T01:39:17.881Z,85.60
2022-10-12T01:41:47.505Z,85.60
2022-10-12T01:44:21.569Z,85.60
2022-10-12T01:46:49.701Z,85.70
2022-10-12T01:49:18.293Z,85.70
2022-10-12T01:51:48.692Z,85.70
2022-10-12T01:54:31.526Z,85.60
2022-10-12T01:57:02.110Z,85.50
2022-10-12T01:59:34.237Z,85.50
2022-10-12T02:02:26.649Z,85.50
2022-10-12T02:05:04.394Z,85.60
2022-10-12T02:07:38.521Z,85.70
2022-10-12T02:10:07.622Z,85.60
2022-10-12T02:12:35.812Z,85.60
2022-10-12T02:15:04.349Z,85.60
2022-10-12T02:17:32.496Z,85.60
2022-10-12T02:20:00.875Z,85.60
2022-10-12T02:22:34.150Z,85.50
2022-10-12T02:25:06.881Z,85.40
2022-10-12T02:27:36.502Z,85.30
2022-10-12T02:30:04.369Z,85.30
2022-10-12T02:32:37.532Z,85.20
2022-10-12T02:35:05.064Z,85.30
2022-10-12T02:37:35.882Z,85.40
2022-10-12T02:40:16.981Z,85.50
2022-10-12T02:43:09.422Z,85.60
2022-10-12T02:45:38.930Z,85.60
2022-10-12T02:48:07.309Z,85.60
2022-10-12T02:50:34.891Z,85.60
2022-10-12T02:53:02.507Z,85.70
2022-10-12T02:55:30.821Z,85.70
2022-10-12T02:57:58.281Z,85.70
2022-10-12T03:00:25.780Z,85.70
2022-10-12T03:02:53.234Z,85.80
2022-10-12T03:05:20.584Z,85.90
2022-10-12T03:07:47.989Z,85.90
2022-10-12T03:10:15.365Z,86.00
2022-10-12T03:12:46.511Z,86.10
2022-10-12T03:15:16.613Z,86.10
2022-10-12T03:17:43.956Z,86.00
2022-10-12T03:20:11.508Z,85.90
2022-10-12T03:22:39.019Z,85.80
2022-10-12T03:25:06.501Z,85.80
2022-10-12T03:27:33.805Z,85.70
2022-10-12T03:30:01.193Z,85.80
2022-10-12T03:32:28.653Z,85.70
2022-10-12T03:34:56.778Z,85.70
2022-10-12T03:37:24.259Z,85.70
2022-10-12T03:39:51.624Z,85.60
2022-10-12T03:42:19.023Z,85.50
2022-10-12T03:44:46.552Z,85.50
2022-10-12T03:47:14.123Z,85.40
2022-10-12T03:49:41.491Z,85.40
2022-10-12T03:52:09.032Z,85.40
2022-10-12T03:54:36.457Z,85.30
2022-10-12T03:57:03.935Z,85.30
2022-10-12T03:59:31.305Z,85.40
2022-10-12T04:01:58.701Z,85.50
2022-10-12T04:04:26.045Z,85.60
2022-10-12T04:06:53.419Z,85.60
2022-10-12T04:09:20.776Z,85.60
2022-10-12T04:11:48.109Z,85.60
2022-10-12T04:14:15.531Z,85.60
2022-10-12T04:16:42.917Z,85.60
2022-10-12T04:19:12.143Z,85.60
2022-10-12T04:21:39.861Z,85.50
2022-10-12T04:24:07.419Z,85.50
2022-10-12T04:26:34.935Z,85.50
2022-10-12T04:29:02.456Z,85.60
2022-10-12T04:31:30.757Z,85.50
2022-10-12T04:33:58.152Z,85.60
2022-10-12T04:36:26.250Z,85.60
2022-10-12T04:38:58.417Z,85.70
2022-10-12T04:41:28.343Z,85.70
2022-10-12T04:43:55.660Z,85.70
2022-10-12T04:46:23.266Z,85.70
2022-10-12T04:48:50.709Z,85.60
2022-10-12T04:51:18.055Z,85.60
2022-10-12T04:53:45.545Z,85.50
2022-10-12T04:56:12.915Z,85.40
2022-10-12T04:58:40.245Z,85.30
2022-10-12T05:01:07.696Z,85.30
2022-10-12T05:03:39.483Z,85.30
2022-10-12T05:06:09.369Z,85.30
2022-10-12T05:08:36.735Z,85.30
2022-10-12T05:11:04.350Z,85.40
2022-10-12T05:13:31.708Z,85.50
2022-10-12T05:15:59.088Z,85.50
2022-10-12T05:18:26.500Z,85.50
2022-10-12T05:20:56.974Z,85.50
2022-10-12T05:23:24.794Z,85.50
2022-10-12T05:25:54.154Z,85.70
2022-10-12T05:28:21.656Z,85.80
2022-10-12T05:30:49.863Z,85.70
2022-10-12T05:33:18.054Z,85.80
2022-10-12T05:35:48.314Z,85.80
2022-10-12T05:38:19.080Z,85.80
2022-10-12T05:40:46.424Z,85.80
2022-10-12T05:43:13.872Z,85.80
2022-10-12T05:45:42.434Z,85.90
2022-10-12T05:48:09.863Z,85.90
2022-10-12T05:50:37.266Z,85.90
2022-10-12T05:53:04.688Z,85.90
2022-10-12T05:55:32.229Z,85.90
2022-10-12T05:57:59.621Z,85.80
2022-10-12T06:00:27.068Z,85.70
2022-10-12T06:02:54.381Z,85.70
2022-10-12T06:05:21.932Z,85.60
2022-10-12T06:07:49.289Z,85.60
2022-10-12T06:10:16.679Z,85.50
2022-10-12T06:12:43.994Z,85.50
2022-10-12T06:15:11.355Z,85.50
2022-10-12T06:17:38.725Z,85.50
2022-10-12T06:20:06.327Z,85.40
2022-10-12T06:22:33.655Z,85.40
2022-10-12T06:25:01.039Z,85.40
2022-10-12T06:27:28.530Z,85.30
2022-10-12T06:29:56.007Z,85.30
2022-10-12T06:32:23.423Z,85.30
2022-10-12T06:34:50.764Z,85.30
2022-10-12T06:37:44.477Z,85.30
2022-10-12T06:40:06.177Z,85.30
2022-10-12T06:42:33.529Z,85.30
2022-10-12T06:45:01.085Z,85.20
2022-10-12T06:47:28.468Z,85.20
2022-10-12T06:49:55.986Z,85.20
2022-10-12T06:52:23.408Z,85.20
2022-10-12T06:54:50.886Z,85.20
2022-10-12T06:57:18.341Z,85.30
2022-10-12T06:59:45.801Z,85.20
2022-10-12T07:02:13.246Z,85.20
2022-10-12T07:04:40.628Z,85.20
2022-10-12T07:07:08.227Z,85.20
2022-10-12T07:09:35.647Z,85.30
2022-10-12T07:12:03.061Z,85.20
2022-10-12T07:14:30.647Z,85.20
2022-10-12T07:16:58.012Z,85.20
2022-10-12T07:19:25.384Z,85.10
2022-10-12T07:21:53.056Z,85.00
2022-10-12T07:24:20.604Z,85.00
2022-10-12T07:26:49.569Z,85.00
2022-10-12T07:29:17.136Z,84.90
2022-10-12T07:31:49.686Z,84.90
2022-10-12T07:34:19.342Z,84.80
2022-10-12T07:36:59.260Z,84.80
2022-10-12T07:39:28.150Z,84.80
2022-10-12T07:41:55.809Z,84.80
2022-10-12T07:44:24.638Z,84.80
2022-10-12T07:46:52.135Z,84.80
2022-10-12T07:49:19.618Z,84.80
2022-10-12T07:51:47.524Z,84.80
2022-10-12T07:54:19.890Z,84.90
2022-10-12T07:56:48.791Z,84.90
2022-10-12T07:59:16.171Z,85.00
2022-10-12T08:01:43.705Z,85.10
2022-10-12T08:04:11.213Z,85.10
2022-10-12T08:06:41.604Z,85.20
2022-10-12T08:09:09.273Z,85.30
2022-10-12T08:11:40.514Z,85.30
2022-10-12T08:14:12.821Z,85.40
2022-10-12T08:16:41.196Z,85.50
2022-10-12T08:19:08.688Z,85.60
2022-10-12T08:21:36.267Z,85.60
2022-10-12T08:24:03.877Z,85.70
2022-10-12T08:26:31.311Z,85.80
2022-10-12T08:28:58.673Z,85.90
2022-10-12T08:31:26.085Z,85.90
2022-10-12T08:33:53.460Z,86.00
2022-10-12T08:36:20.915Z,86.10
2022-10-12T08:38:54.186Z,86.10
2022-10-12T08:41:40.592Z,86.10
2022-10-12T08:44:16.470Z,86.20
2022-10-12T08:46:43.963Z,86.30
2022-10-12T08:49:16.898Z,86.30
2022-10-12T08:51:46.983Z,86.30
2022-10-12T08:54:15.575Z,86.40
2022-10-12T08:56:43.766Z,86.40
2022-10-12T08:59:15.163Z,86.30
2022-10-12T09:01:48.859Z,86.30
2022-10-12T09:04:35.222Z,86.20
2022-10-12T09:07:21.701Z,86.10
2022-10-12T09:09:49.109Z,86.10
2022-10-12T09:12:16.436Z,85.90
2022-10-12T09:14:45.409Z,85.80
2022-10-12T09:17:22.668Z,85.80
2022-10-12T09:19:59.528Z,85.80
2022-10-12T09:22:28.086Z,85.80
2022-10-12T09:24:57.004Z,85.70
2022-10-12T09:27:27.531Z,85.70
2022-10-12T09:29:57.526Z,85.50
2022-10-12T09:32:28.084Z,85.40
2022-10-12T09:34:55.562Z,85.30
2022-10-12T09:37:23.990Z,85.10
2022-10-12T09:39:52.055Z,85.00
2022-10-12T09:42:19.613Z,84.70
2022-10-12T09:44:48.567Z,84.40
2022-10-12T09:47:23.671Z,84.10
2022-10-12T09:49:52.008Z,83.90
2022-10-12T09:52:20.540Z,83.80
2022-10-12T09:54:49.339Z,83.30
2022-10-12T09:57:29.329Z,82.70
2022-10-12T09:59:57.639Z,82.20
2022-10-12T10:02:26.339Z,81.70
2022-10-12T10:04:54.911Z,81.10
2022-10-12T10:07:27.980Z,80.50
2022-10-12T10:10:19.216Z,80.40
2022-10-12T10:12:48.446Z,80.30
2022-10-12T10:15:29.572Z,79.70
2022-10-12T10:17:59.715Z,79.30
2022-10-12T10:20:27.171Z,79.40
2022-10-12T10:22:54.799Z,79.60
2022-10-12T10:25:23.175Z,79.50
2022-10-12T10:27:51.325Z,79.30
2022-10-12T10:30:40.729Z,79.20
2022-10-12T10:33:19.107Z,79.40
2022-10-12T10:36:00.645Z,79.30
2022-10-12T10:38:30.360Z,78.50
2022-10-12T10:40:58.707Z,77.70
2022-10-12T10:43:27.709Z,77.50
2022-10-12T10:45:57.180Z,77.80
2022-10-12T10:48:44.956Z,77.10
2022-10-12T10:51:12.421Z,76.70
2022-10-12T10:53:47.228Z,76.30
2022-10-12T10:56:22.083Z,76.30
2022-10-12T10:58:52.207Z,76.40
2022-10-12T11:01:24.849Z,75.80
2022-10-12T11:03:56.135Z,75.80
2022-10-12T11:06:30.851Z,76.30
2022-10-12T11:09:03.886Z,76.30
2022-10-12T11:11:32.836Z,76.80
2022-10-12T11:14:02.418Z,76.80
2022-10-12T11:16:32.802Z,77.10
2022-10-12T11:19:02.523Z,77.20
2022-10-12T11:21:39.032Z,77.00
2022-10-12T11:24:14.930Z,76.90
2022-10-12T11:26:45.650Z,77.10
2022-10-12T11:29:14.120Z,76.40
2022-10-12T11:31:44.376Z,76.30
2022-10-12T11:34:15.816Z,76.50
2022-10-12T11:37:01.115Z,76.70
2022-10-12T11:39:34.429Z,76.40
2022-10-12T11:42:20.992Z,76.40
2022-10-12T11:44:50.074Z,76.70
2022-10-12T11:47:20.278Z,76.70
2022-10-12T11:49:47.712Z,77.00
2022-10-12T11:52:15.709Z,77.70
2022-10-12T11:54:48.389Z,78.40
2022-10-12T11:57:21.613Z,79.10
2022-10-12T11:59:59.121Z,79.60
2022-10-12T12:02:32.350Z,80.00
2022-10-12T12:05:01.950Z,80.30
2022-10-12T12:07:49.116Z,80.70
2022-10-12T12:10:25.741Z,80.80
2022-10-12T12:13:12.825Z,80.90
2022-10-12T12:16:00.477Z,80.80
2022-10-12T12:18:33.829Z,80.70
2022-10-12T12:21:01.317Z,80.60
2022-10-12T12:23:52.400Z,80.60
2022-10-12T12:26:21.010Z,80.50
2022-10-12T12:28:49.726Z,80.50
2022-10-12T12:31:23.307Z,80.60
2022-10-12T12:34:00.507Z,80.50
2022-10-12T12:36:33.339Z,80.40
2022-10-12T12:39:02.004Z,80.30
2022-10-12T12:41:55.122Z,80.10
2022-10-12T12:44:34.805Z,80.10
2022-10-12T12:47:02.169Z,80.10
2022-10-12T12:49:39.287Z,79.90
2022-10-12T12:52:12.120Z,79.70
2022-10-12T12:55:05.703Z,79.70
2022-10-12T12:58:02.674Z,79.90
2022-10-12T13:00:38.168Z,80.10
2022-10-12T13:03:29.987Z,80.40
2022-10-12T13:06:03.369Z,80.40
2022-10-12T13:08:48.759Z,80.60
2022-10-12T13:11:22.299Z,80.60
2022-10-12T13:13:52.996Z,80.50
2022-10-12T13:19:29.027Z,80.60
2022-10-12T13:21:56.556Z,80.70
2022-10-12T13:24:26.214Z,80.80
2022-10-12T13:27:00.091Z,81.00
2022-10-12T13:29:29.242Z,81.20
2022-10-12T13:32:00.282Z,81.30
2022-10-12T13:34:31.475Z,81.50
2022-10-12T13:37:01.003Z,81.60
2022-10-12T13:39:28.913Z,81.40
2022-10-12T13:41:58.476Z,81.20
2022-10-12T13:44:36.873Z,80.90
2022-10-12T13:47:20.526Z,80.90
2022-10-12T13:49:48.217Z,80.80
2022-10-12T13:52:18.992Z,80.90
2022-10-12T13:54:48.675Z,80.90
2022-10-12T13:57:19.190Z,80.80
2022-10-12T13:59:47.461Z,80.80
2022-10-12T14:02:19.364Z,80.70
2022-10-12T14:04:46.792Z,80.30
2022-10-12T14:07:30.329Z,80.00
2022-10-12T14:09:59.709Z,79.80
2022-10-12T14:12:30.306Z,79.80
2022-10-12T14:14:58.485Z,79.80
2022-10-12T14:17:25.835Z,79.90
2022-10-12T14:19:53.914Z,80.00
2022-10-12T14:22:29.074Z,80.20
2022-10-12T14:25:26.201Z,80.30
2022-10-12T14:27:55.244Z,80.30
2022-10-12T14:30:24.558Z,80.50
2022-10-12T14:32:58.664Z,80.60
2022-10-12T14:35:29.181Z,80.60
2022-10-12T14:37:56.716Z,80.70
2022-10-12T14:40:27.096Z,80.70
2022-10-12T14:42:58.591Z,80.70
2022-10-12T14:45:26.628Z,80.70
2022-10-12T14:47:54.176Z,80.70
2022-10-12T14:50:22.293Z,80.70
2022-10-12T14:52:52.188Z,80.70
2022-10-12T14:55:22.016Z,80.70
2022-10-12T14:57:49.917Z,80.80
2022-10-12T15:00:22.097Z,81.10
2022-10-12T15:02:50.432Z,81.60
2022-10-12T15:05:19.280Z,82.30
2022-10-12T15:07:47.552Z,82.80
2022-10-12T15:10:15.877Z,83.50
2022-10-12T15:12:44.014Z,83.90
2022-10-12T15:15:17.490Z,84.20
2022-10-12T15:17:44.924Z,84.70
2022-10-12T15:20:12.307Z,85.00
2022-10-12T15:22:39.698Z,85.30
2022-10-12T15:25:16.840Z,85.40
2022-10-12T15:27:44.193Z,85.70
2022-10-12T15:30:11.865Z,85.90
2022-10-12T15:32:39.434Z,85.90
2022-10-12T15:35:23.978Z,86.10
2022-10-12T15:37:51.767Z,86.20
2022-10-12T15:40:20.270Z,86.40
2022-10-12T15:42:47.711Z,86.40
2022-10-12T15:45:18.645Z,86.60
2022-10-12T15:47:47.044Z,86.60
2022-10-12T15:50:15.051Z,86.70
2022-10-12T15:52:42.685Z,86.70
2022-10-12T15:55:17.508Z,86.80
2022-10-12T15:57:45.230Z,86.80
2022-10-12T16:00:12.984Z,86.80
2022-10-12T16:02:42.518Z,86.80
2022-10-12T16:05:24.268Z,86.70
2022-10-12T16:07:51.960Z,86.60
2022-10-12T16:10:21.711Z,86.50
2022-10-12T16:12:50.754Z,86.60
2022-10-12T16:15:25.738Z,86.50
2022-10-12T16:17:53.132Z,86.50
2022-10-12T16:20:20.619Z,86.50
2022-10-12T16:22:48.138Z,86.50
2022-10-12T16:25:17.187Z,86.50
2022-10-12T16:27:45.690Z,86.50
2022-10-12T16:30:13.348Z,86.70
2022-10-12T16:32:40.945Z,87.00
2022-10-12T16:35:08.724Z,87.20
2022-10-12T16:37:36.134Z,87.40
2022-10-12T16:40:05.225Z,87.70
2022-10-12T16:42:32.716Z,88.00
2022-10-12T16:45:00.348Z,88.20
2022-10-12T16:47:27.786Z,88.40
2022-10-12T16:49:55.140Z,88.50
2022-10-12T16:52:25.674Z,88.70
2022-10-12T16:54:54.284Z,88.80
2022-10-12T16:57:22.636Z,88.90
2022-10-12T16:59:50.418Z,88.90
2022-10-12T17:02:18.821Z,88.90
2022-10-12T17:04:46.746Z,88.90
2022-10-12T17:07:14.428Z,89.00
2022-10-12T17:09:42.015Z,89.00
2022-10-12T17:12:09.450Z,88.90
2022-10-12T17:14:37.153Z,88.90
2022-10-12T17:17:05.258Z,88.90
2022-10-12T17:19:34.026Z,88.90
2022-10-12T17:22:04.361Z,89.00
2022-10-12T17:24:32.923Z,89.00
2022-10-12T17:27:00.592Z,89.10
2022-10-12T17:29:29.100Z,89.10
2022-10-12T17:31:56.825Z,89.10
2022-10-12T17:34:34.825Z,89.10
2022-10-12T17:37:03.420Z,89.00
2022-10-12T17:39:32.307Z,89.00
2022-10-12T17:41:59.740Z,89.00
2022-10-12T17:44:27.180Z,89.00
2022-10-12T17:46:54.768Z,89.00
2022-10-12T17:49:25.024Z,89.00
2022-10-12T17:51:52.938Z,89.00
2022-10-12T17:54:20.924Z,88.90
2022-10-12T17:56:48.310Z,88.80
2022-10-12T17:59:16.798Z,88.80
2022-10-12T18:01:44.628Z,88.80
2022-10-12T18:04:12.368Z,88.70
2022-10-12T18:06:40.390Z,88.70
2022-10-12T18:09:08.938Z,88.70
2022-10-12T18:11:37.282Z,88.70
2022-10-12T18:14:05.397Z,88.70
2022-10-12T18:16:33.838Z,88.80
2022-10-12T18:19:02.232Z,88.80
2022-10-12T18:21:30.196Z,88.80
2022-10-12T18:24:00.533Z,88.80
2022-10-12T18:26:29.446Z,88.80
2022-10-12T18:28:59.143Z,88.80
2022-10-12T18:31:27.259Z,88.80
2022-10-12T18:33:55.257Z,88.90
2022-10-12T18:36:22.945Z,88.90
2022-10-12T18:38:50.413Z,88.90
2022-10-12T18:41:22.154Z,89.00
2022-10-12T18:43:50.172Z,89.00
2022-10-12T18:46:18.614Z,89.10
2022-10-12T18:48:46.174Z,89.10
2022-10-12T18:51:24.082Z,89.10
2022-10-12T18:53:51.935Z,89.10
2022-10-12T18:56:19.907Z,89.20
2022-10-12T18:58:47.469Z,89.20
2022-10-12T19:01:16.312Z,89.20
2022-10-12T19:03:43.984Z,89.30
2022-10-12T19:06:16.318Z,89.30
2022-10-12T19:08:43.976Z,89.40
2022-10-12T19:11:12.568Z,89.50
2022-10-12T19:13:40.863Z,89.50
2022-10-12T19:16:12.931Z,89.60
2022-10-12T19:18:41.381Z,89.60
2022-10-12T19:21:10.538Z,89.70
2022-10-12T19:23:38.371Z,89.70
2022-10-12T19:26:25.695Z,89.80
2022-10-12T19:28:54.238Z,89.90
2022-10-12T19:31:23.632Z,89.90
2022-10-12T19:33:51.143Z,89.90
2022-10-12T19:36:18.824Z,89.90
2022-10-12T19:38:46.448Z,90.00
2022-10-12T19:41:14.077Z,90.00
2022-10-12T19:43:43.196Z,90.00
2022-10-12T19:46:11.772Z,90.00
2022-10-12T19:48:39.878Z,90.00
2022-10-12T19:51:08.721Z,90.00
2022-10-12T19:53:36.615Z,90.00
2022-10-12T19:56:06.144Z,90.00
2022-10-12T19:58:33.751Z,90.00
2022-10-12T20:01:05.964Z,90.10
2022-10-12T20:03:34.175Z,90.10
2022-10-12T20:06:01.956Z,90.10
2022-10-12T20:08:29.409Z,90.10
2022-10-12T20:10:56.774Z,90.10
2022-10-12T20:13:24.122Z,90.20
2022-10-12T20:15:54.960Z,90.20
2022-10-12T20:18:22.682Z,90.20
2022-10-12T20:20:50.180Z,90.20
2022-10-12T20:23:17.920Z,90.20
2022-10-12T20:25:46.565Z,90.30
2022-10-12T20:28:14.048Z,90.30
2022-10-12T20:30:41.558Z,90.30
2022-10-12T20:33:09.570Z,90.30
2022-10-12T20:35:37.285Z,90.30
2022-10-12T20:38:04.676Z,90.30
2022-10-12T20:40:33.003Z,90.30
2022-10-12T20:43:00.427Z,90.40
2022-10-12T20:45:27.865Z,90.40
2022-10-12T20:47:55.218Z,90.30
2022-10-12T20:50:22.845Z,90.40
2022-10-12T20:52:50.306Z,90.40
2022-10-12T20:55:17.660Z,90.40
2022-10-12T20:57:45.024Z,90.40
2022-10-12T21:00:12.792Z,90.40
2022-10-12T21:02:40.530Z,90.40
2022-10-12T21:05:08.098Z,90.40
2022-10-12T21:07:36.086Z,90.40
2022-10-12T21:10:03.753Z,90.40
2022-10-12T21:12:31.235Z,90.40
2022-10-12T21:14:58.585Z,90.30
2022-10-12T21:17:26.045Z,90.30
2022-10-12T21:19:53.792Z,90.20
2022-10-12T21:22:21.440Z,90.20
2022-10-12T21:24:49.039Z,90.20
2022-10-12T21:27:16.490Z,90.10
2022-10-12T21:29:43.859Z,90.10
2022-10-12T21:32:11.329Z,90.10
2022-10-12T21:34:38.778Z,90.10
2022-10-12T21:37:06.226Z,90.10
2022-10-12T21:39:33.590Z,90.10
2022-10-12T21:42:00.969Z,90.10
2022-10-12T21:44:28.365Z,90.10
2022-10-12T21:46:55.768Z,90.10
2022-10-12T21:49:23.192Z,90.10
2022-10-12T21:51:50.607Z,90.10
2022-10-12T21:54:18.003Z,90.10
2022-10-12T21:56:45.428Z,90.10
2022-10-12T21:59:12.795Z,90.10
2022-10-12T22:01:42.217Z,90.10
2022-10-12T22:04:14.496Z,90.20
2022-10-12T22:06:43.195Z,90.20
2022-10-12T22:09:16.487Z,90.20
2022-10-12T22:11:44.061Z,90.20
2022-10-12T22:14:13.075Z,90.20
2022-10-12T22:16:40.849Z,90.20
2022-10-12T22:19:08.536Z,90.20
2022-10-12T22:21:36.567Z,90.20
2022-10-12T22:24:04.157Z,90.20
2022-10-12T22:26:31.730Z,90.20
2022-10-12T22:29:01.275Z,90.20
2022-10-12T22:31:29.078Z,90.20
2022-10-12T22:33:56.628Z,90.20
2022-10-12T22:36:24.023Z,90.20
2022-10-12T22:38:51.572Z,90.20
2022-10-12T22:41:20.060Z,90.20
2022-10-12T22:43:51.972Z,90.30
2022-10-12T22:46:19.800Z,90.20
2022-10-12T22:48:47.500Z,90.30
2022-10-12T22:51:25.674Z,90.30
2022-10-12T22:53:53.022Z,90.30
2022-10-12T22:56:20.569Z,90.30
2022-10-12T22:58:49.033Z,90.30
2022-10-12T23:01:17.213Z,90.40
2022-10-12T23:03:45.892Z,90.40
2022-10-12T23:06:15.639Z,90.40
2022-10-12T23:08:43.115Z,90.40
2022-10-12T23:11:12.127Z,90.50
2022-10-12T23:13:41.149Z,90.50
2022-10-12T23:16:13.172Z,90.50
2022-10-12T23:18:40.872Z,90.50
2022-10-12T23:21:09.693Z,90.60
2022-10-12T23:23:38.220Z,90.60
2022-10-12T23:26:10.158Z,90.60
2022-10-12T23:28:37.939Z,90.60
2022-10-12T23:31:10.010Z,90.60
2022-10-12T23:33:37.431Z,90.60
2022-10-12T23:36:06.379Z,90.60
2022-10-12T23:38:34.375Z,90.60
2022-10-12T23:41:02.328Z,90.60
2022-10-12T23:43:29.720Z,90.60
2022-10-12T23:46:02.273Z,90.60
2022-10-12T23:48:29.873Z,90.60
2022-10-12T23:50:57.282Z,90.60
2022-10-12T23:53:25.223Z,90.60
2022-10-12T23:55:52.990Z,90.60
2022-10-12T23:58:20.690Z,90.60
